createdAt,value
2019-04-25T00:01:11.572Z,0.90
2019-04-25T00:03:42.564Z,0.98
2019-04-25T00:06:12.577Z,1.10
2019-04-25T00:08:43.059Z,1.00
2019-04-25T00:11:13.059Z,0.80
2019-04-25T00:13:43.226Z,1.00
2019-04-25T00:16:13.080Z,0.90
2019-04-25T00:18:42.848Z,0.90
2019-04-25T00:21:22.665Z,1.27
2019-04-25T00:23:56.112Z,1.00
2019-04-25T00:26:43.224Z,0.80
2019-04-25T00:29:13.211Z,0.80
2019-04-25T00:31:43.717Z,0.80
2019-04-25T00:34:12.903Z,0.75
2019-04-25T00:36:43.532Z,0.85
2019-04-25T00:39:12.543Z,1.05
2019-04-25T00:41:44.344Z,0.88
2019-04-25T00:44:12.392Z,0.90
2019-04-25T00:46:44.798Z,0.70
2019-04-25T00:49:12.317Z,1.05
2019-04-25T00:51:42.573Z,0.80
2019-04-25T00:54:12.049Z,0.80
2019-04-25T00:56:43.292Z,0.98
2019-04-25T00:59:17.401Z,0.90
2019-04-25T01:02:17.828Z,0.82
2019-04-25T01:04:47.224Z,0.75
2019-04-25T01:07:16.415Z,0.80
2019-04-25T01:09:45.717Z,0.78
2019-04-25T01:12:14.918Z,0.93
2019-04-25T01:14:44.261Z,0.80
2019-04-25T01:17:14.240Z,0.70
2019-04-25T01:19:44.924Z,0.75
2019-04-25T01:22:14.447Z,0.80
2019-04-25T01:24:43.947Z,0.60
2019-04-25T01:27:13.560Z,0.80
2019-04-25T01:29:44.405Z,0.60
2019-04-25T01:32:16.706Z,0.80
2019-04-25T01:35:05.231Z,0.80
2019-04-25T01:37:51.109Z,0.78
2019-04-25T01:40:39.502Z,0.60
2019-04-25T01:43:39.574Z,0.80
2019-04-25T01:46:08.768Z,0.70
2019-04-25T01:48:37.875Z,0.70
2019-04-25T01:51:06.841Z,0.70
2019-04-25T01:53:35.936Z,0.60
2019-04-25T01:56:07.597Z,0.80
2019-04-25T01:58:35.442Z,0.80
2019-04-25T02:01:04.666Z,0.60
2019-04-25T02:03:34.253Z,0.82
2019-04-25T02:06:05.074Z,0.60
2019-04-25T02:08:34.449Z,0.60
2019-04-25T02:11:16.444Z,0.67
2019-04-25T02:13:45.479Z,0.75
2019-04-25T02:16:14.466Z,0.60
2019-04-25T02:18:43.643Z,0.78
2019-04-25T02:21:13.727Z,0.70
2019-04-25T02:26:15.937Z,0.60
2019-04-25T02:28:43.315Z,0.70
2019-04-25T02:31:15.366Z,0.80
2019-04-25T02:33:44.251Z,0.62
2019-04-25T02:38:44.258Z,0.80
2019-04-25T02:41:14.808Z,0.80
2019-04-25T02:46:31.861Z,0.60
2019-04-25T02:49:29.966Z,0.62
2019-04-25T02:52:13.100Z,0.60
2019-04-25T02:54:40.411Z,0.68
2019-04-25T02:57:09.334Z,0.70
2019-04-25T02:59:38.193Z,0.47
2019-04-25T03:02:09.093Z,0.57
2019-04-25T03:04:37.770Z,0.78
2019-04-25T03:07:10.532Z,0.60
2019-04-25T03:09:37.486Z,0.80
2019-04-25T03:12:08.106Z,0.70
2019-04-25T03:14:37.129Z,0.70
2019-04-25T03:17:08.656Z,0.88
2019-04-25T03:19:59.894Z,0.75
2019-04-25T03:22:30.516Z,0.60
2019-04-25T03:25:00.261Z,0.70
2019-04-25T03:27:30.247Z,0.70
2019-04-25T03:29:59.748Z,0.60
2019-04-25T03:32:28.714Z,0.70
2019-04-25T03:34:57.899Z,0.70
2019-04-25T03:37:26.793Z,0.60
2019-04-25T03:39:55.854Z,0.62
2019-04-25T03:42:24.757Z,0.70
2019-04-25T03:44:53.922Z,0.90
2019-04-25T03:47:23.554Z,0.70
2019-04-25T03:49:55.101Z,0.70
2019-04-25T03:52:23.894Z,0.65
2019-04-25T03:54:53.433Z,0.50
2019-04-25T03:57:23.245Z,0.50
2019-04-25T03:59:53.639Z,0.78
2019-04-25T04:04:53.766Z,0.75
2019-04-25T04:07:23.774Z,0.70
2019-04-25T04:09:53.308Z,0.70
2019-04-25T04:12:24.319Z,0.60
2019-04-25T04:14:53.815Z,0.88
2019-04-25T04:17:31.031Z,0.60
2019-04-25T04:20:17.517Z,0.90
2019-04-25T04:22:59.414Z,0.70
2019-04-25T04:25:28.441Z,0.60
2019-04-25T04:27:57.496Z,0.60
2019-04-25T04:30:26.593Z,0.85
2019-04-25T04:32:55.489Z,0.85
2019-04-25T04:35:24.605Z,0.70
2019-04-25T04:37:54.195Z,0.57
2019-04-25T04:40:24.274Z,0.72
2019-04-25T04:42:53.360Z,0.80
2019-04-25T04:45:23.245Z,0.80
2019-04-25T04:47:53.338Z,0.70
2019-04-25T04:50:23.280Z,0.72
2019-04-25T04:52:54.023Z,0.60
2019-04-25T04:55:23.307Z,0.60
2019-04-25T04:57:52.244Z,0.62
2019-04-25T05:00:23.183Z,0.82
2019-04-25T05:03:02.295Z,0.80
2019-04-25T05:05:50.266Z,0.80
2019-04-25T05:08:25.013Z,0.70
2019-04-25T05:10:55.046Z,0.60
2019-04-25T05:13:24.674Z,0.70
2019-04-25T05:15:53.685Z,0.80
2019-04-25T05:18:36.593Z,0.65
2019-04-25T05:20:54.296Z,0.75
2019-04-25T05:23:24.793Z,0.98
2019-04-25T05:25:55.658Z,0.80
2019-04-25T05:28:24.696Z,1.17
2019-04-25T05:31:03.801Z,1.20
2019-04-25T05:33:33.802Z,2.00
2019-04-25T05:36:03.750Z,2.22
2019-04-25T05:38:33.416Z,1.75
2019-04-25T05:41:11.458Z,1.45
2019-04-25T05:43:41.316Z,2.55
2019-04-25T05:46:11.348Z,2.30
2019-04-25T05:48:40.372Z,3.05
2019-04-25T05:51:09.446Z,2.50
2019-04-25T05:53:38.515Z,1.40
2019-04-25T05:56:07.443Z,1.00
2019-04-25T05:58:36.398Z,1.80
2019-04-25T06:01:05.596Z,1.30
2019-04-25T06:03:34.491Z,1.17
2019-04-25T06:06:03.548Z,1.45
2019-04-25T06:08:34.229Z,1.40
2019-04-25T06:11:15.980Z,1.25
2019-04-25T06:13:50.326Z,1.10
2019-04-25T06:16:28.283Z,1.07
2019-04-25T06:19:14.021Z,1.05
2019-04-25T06:21:40.622Z,2.30
2019-04-25T06:24:21.390Z,1.15
2019-04-25T06:27:18.136Z,1.07
2019-04-25T06:29:58.148Z,1.32
2019-04-25T06:32:21.459Z,1.87
2019-04-25T06:34:50.683Z,1.87
2019-04-25T06:37:21.209Z,1.10
2019-04-25T06:39:50.478Z,1.12
2019-04-25T06:42:21.032Z,1.12
2019-04-25T06:44:56.689Z,1.20
2019-04-25T06:47:44.269Z,1.10
2019-04-25T06:50:13.691Z,1.30
2019-04-25T06:52:44.210Z,1.52
2019-04-25T06:55:34.287Z,1.30
2019-04-25T06:58:10.121Z,1.25
2019-04-25T07:00:40.531Z,1.70
2019-04-25T07:03:04.688Z,1.27
2019-04-25T07:05:40.006Z,1.47
2019-04-25T07:08:04.205Z,1.57
2019-04-25T07:10:33.890Z,1.67
2019-04-25T07:13:04.310Z,16.07
2019-04-25T07:15:34.112Z,22.58
2019-04-25T07:18:04.287Z,27.40
2019-04-25T07:20:34.574Z,26.65
2019-04-25T07:23:03.881Z,23.27
2019-04-25T07:25:36.628Z,22.73
2019-04-25T07:28:29.765Z,22.20
2019-04-25T07:31:13.305Z,19.00
2019-04-25T07:33:53.500Z,18.02
2019-04-25T07:36:23.313Z,17.77
2019-04-25T07:39:05.176Z,15.48
2019-04-25T07:41:24.197Z,15.20
2019-04-25T07:43:54.018Z,14.18
2019-04-25T07:46:23.482Z,11.20
2019-04-25T07:48:53.545Z,4.78
2019-04-25T07:51:23.717Z,2.80
2019-04-25T07:53:53.435Z,2.52
2019-04-25T07:56:24.074Z,2.20
2019-04-25T07:58:54.759Z,1.90
2019-04-25T08:01:24.128Z,1.70
2019-04-25T08:03:53.741Z,1.70
2019-04-25T08:06:24.251Z,2.60
2019-04-25T08:08:54.600Z,4.35
2019-04-25T08:11:23.814Z,3.08
2019-04-25T08:14:15.764Z,2.58
2019-04-25T08:16:46.427Z,1.62
2019-04-25T08:19:15.297Z,1.82
2019-04-25T08:21:45.164Z,1.60
2019-04-25T08:24:14.264Z,1.20
2019-04-25T08:26:43.679Z,1.47
2019-04-25T08:29:13.306Z,1.10
2019-04-25T08:31:43.876Z,1.30
2019-04-25T08:34:14.507Z,1.40
2019-04-25T08:36:45.758Z,1.75
2019-04-25T08:39:14.765Z,1.30
2019-04-25T08:41:45.594Z,1.10
2019-04-25T08:44:14.704Z,2.62
2019-04-25T08:46:46.955Z,5.25
2019-04-25T08:49:38.744Z,4.60
2019-04-25T08:52:08.049Z,1.75
2019-04-25T08:55:00.766Z,1.57
2019-04-25T08:58:06.655Z,2.02
2019-04-25T09:00:59.081Z,1.40
2019-04-25T09:03:24.260Z,1.75
2019-04-25T09:05:53.606Z,1.87
2019-04-25T09:08:23.982Z,1.92
2019-04-25T09:10:53.460Z,1.60
2019-04-25T09:13:23.512Z,1.27
2019-04-25T09:15:54.055Z,1.10
2019-04-25T09:18:24.065Z,1.10
2019-04-25T09:20:53.963Z,1.20
2019-04-25T09:23:23.680Z,1.40
2019-04-25T09:25:54.325Z,1.40
2019-04-25T09:28:23.927Z,1.10
2019-04-25T09:30:54.064Z,1.05
2019-04-25T09:33:23.281Z,1.10
2019-04-25T09:35:52.107Z,1.27
2019-04-25T09:38:21.126Z,1.30
2019-04-25T09:40:50.106Z,1.40
2019-04-25T09:43:19.342Z,1.52
2019-04-25T09:45:58.082Z,2.15
2019-04-25T09:48:31.718Z,1.87
2019-04-25T09:51:07.474Z,2.08
2019-04-25T09:53:43.445Z,1.80
2019-04-25T09:56:17.663Z,1.30
2019-04-25T09:58:53.747Z,1.52
2019-04-25T10:01:23.965Z,1.42
2019-04-25T10:03:54.380Z,1.45
2019-04-25T10:06:23.423Z,1.90
2019-04-25T10:08:54.130Z,1.67
2019-04-25T10:11:23.792Z,2.33
2019-04-25T10:14:11.511Z,2.10
2019-04-25T10:16:40.417Z,2.05
2019-04-25T10:19:09.541Z,1.37
2019-04-25T10:21:39.544Z,1.20
2019-04-25T10:24:08.572Z,1.55
2019-04-25T10:26:38.634Z,1.60
2019-04-25T10:29:08.411Z,1.12
2019-04-25T10:31:37.455Z,1.35
2019-04-25T10:34:06.441Z,1.30
2019-04-25T10:36:35.438Z,1.40
2019-04-25T10:39:10.649Z,1.10
2019-04-25T10:41:36.550Z,0.90
2019-04-25T10:44:06.084Z,1.35
2019-04-25T10:46:34.992Z,0.90
2019-04-25T10:49:04.479Z,1.35
2019-04-25T10:51:34.265Z,1.00
2019-04-25T10:54:04.138Z,1.22
2019-04-25T10:56:33.532Z,1.20
2019-04-25T10:59:04.234Z,1.02
2019-04-25T11:01:33.915Z,1.30
2019-04-25T11:04:08.113Z,1.10
2019-04-25T11:06:37.002Z,1.20
2019-04-25T11:09:08.748Z,1.00
2019-04-25T11:11:37.587Z,1.25
2019-04-25T11:14:07.598Z,1.05
2019-04-25T11:19:05.372Z,1.25
2019-04-25T11:21:34.223Z,1.50
2019-04-25T11:24:04.074Z,1.10
2019-04-25T11:26:34.542Z,1.25
2019-04-25T11:29:03.677Z,0.80
2019-04-25T11:31:37.192Z,0.98
2019-04-25T11:34:06.565Z,1.10
2019-04-25T11:36:35.695Z,1.63
2019-04-25T11:39:30.625Z,0.75
2019-04-25T11:41:59.775Z,1.05
2019-04-25T11:44:28.772Z,0.88
2019-04-25T11:46:57.640Z,0.90
2019-04-25T11:49:26.665Z,1.07
2019-04-25T11:51:55.788Z,0.88
2019-04-25T11:54:24.866Z,1.00
2019-04-25T11:56:54.715Z,0.80
2019-04-25T11:59:24.427Z,1.20
2019-04-25T12:01:54.782Z,0.90
2019-04-25T12:04:25.347Z,0.80
2019-04-25T12:09:23.983Z,1.00
2019-04-25T12:11:54.464Z,0.90
2019-04-25T12:14:25.190Z,1.02
2019-04-25T12:16:56.123Z,1.27
2019-04-25T12:19:34.973Z,46.75
2019-04-25T12:21:58.093Z,16.73
2019-04-25T12:24:27.203Z,13.85
2019-04-25T12:26:56.372Z,14.03
2019-04-25T12:29:25.478Z,5.90
2019-04-25T12:31:54.916Z,6.00
2019-04-25T12:34:24.335Z,5.33
2019-04-25T12:36:54.487Z,4.27
2019-04-25T12:39:24.278Z,3.83
2019-04-25T12:41:54.391Z,4.22
2019-04-25T12:44:41.635Z,3.85
2019-04-25T12:47:14.063Z,3.62
2019-04-25T12:49:43.771Z,4.62
2019-04-25T12:52:13.145Z,3.65
2019-04-25T12:54:43.987Z,3.47
2019-04-25T12:57:14.171Z,3.45
2019-04-25T12:59:45.177Z,3.05
2019-04-25T13:02:14.401Z,3.00
2019-04-25T13:04:44.282Z,3.30
2019-04-25T13:07:13.770Z,3.10
2019-04-25T13:09:42.695Z,2.60
2019-04-25T13:12:14.614Z,2.80
2019-04-25T13:14:42.799Z,2.72
2019-04-25T13:17:11.805Z,2.00
2019-04-25T13:19:43.999Z,2.27
2019-04-25T13:22:13.313Z,2.75
2019-04-25T13:24:42.275Z,2.45
2019-04-25T13:27:18.163Z,2.00
2019-04-25T13:30:11.827Z,2.15
2019-04-25T13:33:02.582Z,2.05
2019-04-25T13:35:36.346Z,2.25
2019-04-25T13:38:05.346Z,2.02
2019-04-25T13:40:34.286Z,2.25
2019-04-25T13:43:04.916Z,1.80
2019-04-25T13:45:34.356Z,1.80
2019-04-25T13:48:04.900Z,2.10
2019-04-25T13:50:34.389Z,2.12
2019-04-25T13:53:03.597Z,1.87
2019-04-25T13:55:32.599Z,1.65
2019-04-25T13:58:01.646Z,1.72
2019-04-25T14:00:30.902Z,2.00
2019-04-25T14:03:00.055Z,1.77
2019-04-25T14:05:29.210Z,1.55
2019-04-25T14:07:58.078Z,1.50
2019-04-25T14:10:27.852Z,1.50
2019-04-25T14:12:57.029Z,1.57
2019-04-25T14:15:27.456Z,2.00
2019-04-25T14:18:15.509Z,1.50
2019-04-25T14:21:24.784Z,1.98
2019-04-25T14:23:54.143Z,1.77
2019-04-25T14:26:23.129Z,1.60
2019-04-25T14:28:52.087Z,1.45
2019-04-25T14:31:39.131Z,1.45
2019-04-25T14:33:55.808Z,1.60
2019-04-25T14:36:27.132Z,1.40
2019-04-25T14:38:55.489Z,1.15
2019-04-25T14:41:24.595Z,1.40
2019-04-25T14:43:53.649Z,1.30
2019-04-25T14:46:22.850Z,1.90
2019-04-25T14:48:51.742Z,1.40
2019-04-25T14:51:20.696Z,1.20
2019-04-25T14:53:49.895Z,1.10
2019-04-25T14:56:28.636Z,1.22
2019-04-25T14:58:57.493Z,0.98
2019-04-25T15:01:26.472Z,1.42
2019-04-25T15:03:55.314Z,1.20
2019-04-25T15:06:24.473Z,1.20
2019-04-25T15:08:54.265Z,1.30
2019-04-25T15:11:24.437Z,0.93
2019-04-25T15:16:22.362Z,1.00
2019-04-25T15:18:52.264Z,1.25
2019-04-25T15:21:21.296Z,1.15
2019-04-25T15:23:59.935Z,1.22
2019-04-25T15:26:21.185Z,1.10
2019-04-25T15:28:50.206Z,1.20
2019-04-25T15:31:19.110Z,1.50
2019-04-25T15:33:48.256Z,1.00
2019-04-25T15:36:28.656Z,1.07
2019-04-25T15:39:16.458Z,0.95
2019-04-25T15:41:50.482Z,1.12
2019-04-25T15:44:35.311Z,1.30
2019-04-25T15:47:05.870Z,1.15
2019-04-25T15:49:34.904Z,1.30
2019-04-25T15:52:04.473Z,1.05
2019-04-25T15:54:33.896Z,1.10
2019-04-25T15:57:02.916Z,1.12
2019-04-25T15:59:32.783Z,1.10
2019-04-25T16:02:07.890Z,0.82
2019-04-25T16:04:32.693Z,1.27
2019-04-25T16:07:01.586Z,1.00
2019-04-25T16:09:31.894Z,1.10
2019-04-25T16:12:00.864Z,0.90
2019-04-25T16:14:29.654Z,0.95
2019-04-25T16:16:58.541Z,1.00
2019-04-25T16:19:28.210Z,0.80
2019-04-25T16:21:57.652Z,0.88
2019-04-25T16:24:26.696Z,1.07
2019-04-25T16:26:55.764Z,0.85
2019-04-25T16:29:24.681Z,1.00
2019-04-25T16:31:53.725Z,0.90
2019-04-25T16:34:22.854Z,0.95
2019-04-25T16:36:51.963Z,1.00
2019-04-25T16:39:24.125Z,0.80
2019-04-25T16:41:53.009Z,0.80
2019-04-25T16:44:22.572Z,0.88
2019-04-25T16:46:51.650Z,0.70
2019-04-25T16:49:20.484Z,0.80
2019-04-25T16:51:49.590Z,0.93
2019-04-25T16:54:18.706Z,0.95
2019-04-25T16:56:47.598Z,0.95
2019-04-25T16:59:16.836Z,0.80
2019-04-25T17:01:46.346Z,0.75
2019-04-25T17:04:19.748Z,0.82
2019-04-25T17:06:47.854Z,0.88
2019-04-25T17:09:16.844Z,1.00
2019-04-25T17:11:46.104Z,0.90
2019-04-25T17:14:39.720Z,0.80
2019-04-25T17:17:33.716Z,0.70
2019-04-25T17:20:18.264Z,0.80
2019-04-25T17:22:47.309Z,0.80
2019-04-25T17:25:18.394Z,1.10
2019-04-25T17:27:47.444Z,0.70
2019-04-25T17:30:16.553Z,0.70
2019-04-25T17:33:04.569Z,0.88
2019-04-25T17:35:52.739Z,1.40
2019-04-25T17:38:33.550Z,0.80
2019-04-25T17:41:02.496Z,0.60
2019-04-25T17:43:31.994Z,0.72
2019-04-25T17:46:02.041Z,0.80
2019-04-25T17:48:31.868Z,0.90
2019-04-25T17:51:00.862Z,1.00
2019-04-25T17:53:29.791Z,0.80
2019-04-25T17:55:58.875Z,0.80
2019-04-25T17:58:27.812Z,0.85
2019-04-25T18:00:56.961Z,0.70
2019-04-25T18:03:26.359Z,0.70
2019-04-25T18:05:55.276Z,0.77
2019-04-25T18:08:24.230Z,0.80
2019-04-25T18:10:53.100Z,0.78
2019-04-25T18:13:22.069Z,1.10
2019-04-25T18:16:09.938Z,0.68
2019-04-25T18:18:53.989Z,0.75
2019-04-25T18:21:23.103Z,0.72
2019-04-25T18:24:10.939Z,1.10
2019-04-25T18:27:10.827Z,0.80
2019-04-25T18:29:40.096Z,0.70
2019-04-25T18:32:08.983Z,0.80
2019-04-25T18:34:44.414Z,0.98
2019-04-25T18:37:37.196Z,0.80
2019-04-25T18:40:12.802Z,0.70
2019-04-25T18:42:51.378Z,0.75
2019-04-25T18:45:24.836Z,0.80
2019-04-25T18:47:53.860Z,0.60
2019-04-25T18:50:25.450Z,0.80
2019-04-25T18:53:22.333Z,0.70
2019-04-25T18:56:03.129Z,0.70
2019-04-25T18:58:57.025Z,0.70
2019-04-25T19:01:54.265Z,0.88
2019-04-25T19:04:30.274Z,0.62
2019-04-25T19:06:59.279Z,0.70
2019-04-25T19:09:28.649Z,0.72
2019-04-25T19:11:57.557Z,0.70
2019-04-25T19:14:27.278Z,0.75
2019-04-25T19:16:56.547Z,0.80
2019-04-25T19:19:25.454Z,0.70
2019-04-25T19:21:54.348Z,0.88
2019-04-25T19:24:23.549Z,0.78
2019-04-25T19:26:52.620Z,0.62
2019-04-25T19:29:21.651Z,0.95
2019-04-25T19:31:52.065Z,0.70
2019-04-25T19:34:21.414Z,0.90
2019-04-25T19:36:51.208Z,0.80
2019-04-25T19:39:21.714Z,0.90
2019-04-25T19:42:09.651Z,0.80
2019-04-25T19:44:38.710Z,0.90
2019-04-25T19:47:07.710Z,0.80
2019-04-25T19:49:36.703Z,0.90
2019-04-25T19:52:05.638Z,0.72
2019-04-25T19:54:34.735Z,0.70
2019-04-25T19:57:03.816Z,0.75
2019-04-25T19:59:33.018Z,0.70
2019-04-25T20:02:06.593Z,1.00
2019-04-25T20:05:03.860Z,0.70
2019-04-25T20:07:38.096Z,0.82
2019-04-25T20:10:25.147Z,0.80
2019-04-25T20:12:54.983Z,0.78
2019-04-25T20:15:23.906Z,0.68
2019-04-25T20:17:54.104Z,0.72
2019-04-25T20:20:23.123Z,0.80
2019-04-25T20:22:52.395Z,0.72
2019-04-25T20:25:21.382Z,0.82
2019-04-25T20:27:50.807Z,0.90
2019-04-25T20:30:19.913Z,0.80
2019-04-25T20:32:49.250Z,0.78
2019-04-25T20:35:18.379Z,0.75
2019-04-25T20:37:47.542Z,0.80
2019-04-25T20:40:16.429Z,0.78
2019-04-25T20:42:45.556Z,0.80
2019-04-25T20:45:15.926Z,0.80
2019-04-25T20:47:46.582Z,0.82
2019-04-25T20:50:15.736Z,0.70
2019-04-25T20:52:44.744Z,0.68
2019-04-25T20:55:13.969Z,0.75
2019-04-25T20:57:42.887Z,0.88
2019-04-25T21:00:12.123Z,0.78
2019-04-25T21:02:41.114Z,0.70
2019-04-25T21:05:10.198Z,0.95
2019-04-25T21:07:39.042Z,1.00
2019-04-25T21:10:08.193Z,0.82
2019-04-25T21:12:37.153Z,0.70
2019-04-25T21:15:31.219Z,0.93
2019-04-25T21:18:13.683Z,0.80
2019-04-25T21:20:42.658Z,0.72
2019-04-25T21:23:11.686Z,0.70
2019-04-25T21:25:40.697Z,0.80
2019-04-25T21:28:09.732Z,0.90
2019-04-25T21:30:38.601Z,0.62
2019-04-25T21:33:07.628Z,0.72
2019-04-25T21:35:36.775Z,1.00
2019-04-25T21:38:05.723Z,0.82
2019-04-25T21:40:46.957Z,1.00
2019-04-25T21:46:00.891Z,0.90
2019-04-25T21:48:30.293Z,0.87
2019-04-25T21:51:01.922Z,1.00
2019-04-25T21:53:30.847Z,0.80
2019-04-25T21:56:00.148Z,1.02
2019-04-25T21:58:29.287Z,1.10
2019-04-25T22:01:09.525Z,0.93
2019-04-25T22:03:38.520Z,0.80
2019-04-25T22:06:07.830Z,0.80
2019-04-25T22:08:36.837Z,0.90
2019-04-25T22:11:05.685Z,0.93
2019-04-25T22:13:34.862Z,1.07
2019-04-25T22:16:04.155Z,0.80
2019-04-25T22:18:33.441Z,1.00
2019-04-25T22:21:04.224Z,0.80
2019-04-25T22:23:33.474Z,0.70
2019-04-25T22:26:02.973Z,1.25
2019-04-25T22:28:32.260Z,0.90
2019-04-25T22:31:03.511Z,0.90
2019-04-25T22:33:45.613Z,0.75
2019-04-25T22:36:20.260Z,1.02
2019-04-25T22:39:08.689Z,0.95
2019-04-25T22:41:38.568Z,0.90
2019-04-25T22:44:09.069Z,0.80
2019-04-25T22:46:38.441Z,0.80
2019-04-25T22:49:07.718Z,0.62
2019-04-25T22:51:36.790Z,0.90
2019-04-25T22:54:06.178Z,0.82
2019-04-25T22:56:35.122Z,0.90
2019-04-25T22:59:04.925Z,0.70
2019-04-25T23:02:07.751Z,0.80
2019-04-25T23:04:50.536Z,0.80
2019-04-25T23:07:19.441Z,0.80
2019-04-25T23:09:50.432Z,0.80
2019-04-25T23:12:19.719Z,0.80
2019-04-25T23:14:48.729Z,0.80
2019-04-25T23:17:17.692Z,0.70
2019-04-25T23:19:46.773Z,0.60
2019-04-25T23:22:15.842Z,1.00
2019-04-25T23:24:51.058Z,0.90
2019-04-25T23:27:34.833Z,0.75
2019-04-25T23:30:05.697Z,0.72
2019-04-25T23:32:35.568Z,0.70
2019-04-25T23:35:14.784Z,0.78
2019-04-25T23:37:35.158Z,0.75
2019-04-25T23:40:03.961Z,0.72
2019-04-25T23:42:32.936Z,0.80
2019-04-25T23:45:02.419Z,0.70
2019-04-25T23:47:31.412Z,0.53
2019-04-25T23:50:00.426Z,0.70
2019-04-25T23:52:29.486Z,0.57
2019-04-25T23:54:58.478Z,0.80
2019-04-25T23:57:27.471Z,0.60
2019-04-25T23:59:56.462Z,0.75
